Time;durP1;ratioP1;P1;durP2;ratioP2;P2;SDS_P1;SDS_P2;PMS_P1;PMS_P2;Temp;Humidity;BMP_temperature;BMP_pressure;BME280_temperature;BME280_humidity;BME280_pressure;Samples;Min_cycle;Max_cycle;Signal;HPM_P1;HPM_P2
2022/08/11 00:00:05;;;;;;;3.65;2.70;;;17.90;99.90;;;;;;5036533;28;20079;-67
2022/08/11 00:02:36;;;;;;;3.50;2.80;;;17.90;99.90;;;;;;5019382;28;20494;-67
2022/08/11 00:05:09;;;;;;;4.45;2.92;;;17.80;99.90;;;;;;5036922;28;20085;-67
2022/08/11 00:07:53;;;;;;;3.60;2.58;;;17.80;99.90;;;;;;5036399;28;20051;-67
2022/08/11 00:10:24;;;;;;;3.40;2.70;;;17.70;99.90;;;;;;5036410;28;20049;-67
2022/08/11 00:13:03;;;;;;;3.60;2.67;;;17.70;99.90;;;;;;5036108;28;20092;-67
2022/08/11 00:15:44;;;;;;;4.00;3.10;;;17.60;99.90;;;;;;5018678;28;20045;-67
2022/08/11 00:18:11;;;;;;;3.22;2.63;;;17.60;99.90;;;;;;5018763;28;20057;-67
2022/08/11 00:20:44;;;;;;;4.13;3.05;;;17.50;99.90;;;;;;5036185;28;20060;-67
2022/08/11 00:23:12;;;;;;;4.47;2.90;;;17.50;99.90;;;;;;5036233;28;20045;-67
2022/08/11 00:25:44;;;;;;;5.88;3.05;;;17.40;99.90;;;;;;5036046;28;20132;-67
2022/08/11 00:28:30;;;;;;;3.67;2.85;;;17.40;99.90;;;;;;5036076;28;20049;-67
2022/08/11 00:31:00;;;;;;;4.00;2.60;;;17.40;99.90;;;;;;5035963;28;20124;-67
2022/08/11 00:33:34;;;;;;;4.25;2.75;;;17.30;99.90;;;;;;5035877;28;20054;-67
2022/08/11 00:36:02;;;;;;;3.97;2.60;;;17.30;99.90;;;;;;5035326;28;20061;-67
2022/08/11 00:38:33;;;;;;;4.25;3.00;;;17.20;99.90;;;;;;5035786;28;20056;-67
2022/08/11 00:41:10;;;;;;;4.13;3.13;;;17.20;99.90;;;;;;5036661;28;20049;-67
2022/08/11 00:44:02;;;;;;;3.25;2.70;;;17.20;99.90;;;;;;5035725;28;20056;-67
2022/08/11 00:46:39;;;;;;;3.80;2.65;;;17.10;99.90;;;;;;5018522;28;20099;-67
2022/08/11 00:49:44;;;;;;;3.97;2.80;;;17.10;99.90;;;;;;5035702;28;20099;-67
2022/08/11 00:52:17;;;;;;;3.75;2.78;;;17.10;99.90;;;;;;5036447;28;20367;-67
2022/08/11 00:55:10;;;;;;;3.47;2.67;;;17.00;99.90;;;;;;5036181;28;20494;-67
2022/08/11 00:58:03;;;;;;;3.20;2.75;;;17.00;99.90;;;;;;5036353;28;20100;-67
2022/08/11 01:00:48;;;;;;;3.65;2.90;;;16.90;99.90;;;;;;5035932;28;20402;-67
2022/08/11 01:03:51;;;;;;;3.90;2.63;;;16.90;99.90;;;;;;5036055;28;20516;-67
2022/08/11 01:06:35;;;;;;;3.92;2.90;;;16.90;99.90;;;;;;5035368;28;20418;-67
2022/08/11 01:09:31;;;;;;;3.63;2.85;;;16.90;99.90;;;;;;5035286;28;20049;-67
2022/08/11 01:12:52;;;;;;;4.13;2.60;;;16.90;99.90;;;;;;5035358;28;20053;-67
2022/08/11 01:15:50;;;;;;;3.97;2.92;;;16.90;99.90;;;;;;4938821;29;20055;-67
2022/08/11 01:18:52;;;;;;;4.03;2.80;;;16.90;99.90;;;;;;5035738;28;20129;-67
2022/08/11 01:22:04;;;;;;;3.42;2.72;;;16.80;99.90;;;;;;5035141;28;20045;-67
2022/08/11 01:25:16;;;;;;;3.72;2.70;;;16.80;99.90;;;;;;5034899;28;20053;-67
2022/08/11 01:28:19;;;;;;;4.00;2.78;;;16.80;99.90;;;;;;5031071;28;20136;-67
2022/08/11 01:31:07;;;;;;;4.10;2.70;;;16.70;99.90;;;;;;5017006;28;20410;-67
2022/08/11 01:34:14;;;;;;;4.03;2.90;;;16.70;99.90;;;;;;5035606;28;20378;-67
2022/08/11 01:36:59;;;;;;;4.20;3.22;;;16.70;99.90;;;;;;5034852;28;20045;-67
2022/08/11 01:39:36;;;;;;;3.70;2.97;;;16.70;99.90;;;;;;5035057;28;20401;-67
2022/08/11 01:45:51;;;;;;;4.15;3.20;;;16.70;99.90;;;;;;5034570;28;20049;-67
2022/08/11 01:48:44;;;;;;;4.65;3.30;;;16.60;99.90;;;;;;5017145;28;20390;-67
2022/08/11 01:51:37;;;;;;;4.93;3.05;;;16.60;99.90;;;;;;5034529;28;20038;-67
2022/08/11 01:54:23;;;;;;;3.53;3.08;;;16.60;99.90;;;;;;5017077;28;20042;-67
2022/08/11 01:57:07;;;;;;;4.90;3.30;;;16.60;99.90;;;;;;5017301;28;20124;-67
2022/08/11 01:59:50;;;;;;;5.22;3.40;;;16.50;99.90;;;;;;5034356;28;20046;-67
2022/08/11 02:02:46;;;;;;;5.05;3.40;;;16.50;99.90;;;;;;5034368;28;20128;-67
2022/08/11 02:05:49;;;;;;;4.95;3.55;;;16.50;99.90;;;;;;5034755;28;20390;-67
2022/08/11 02:08:32;;;;;;;3.88;3.13;;;16.40;99.90;;;;;;5034655;28;20504;-67
2022/08/11 02:11:29;;;;;;;5.75;3.50;;;16.40;99.90;;;;;;5033888;28;20490;-67
2022/08/11 02:14:28;;;;;;;4.38;3.33;;;16.30;99.90;;;;;;5016800;28;20124;-67
2022/08/11 02:17:12;;;;;;;5.65;2.97;;;16.30;99.90;;;;;;5016388;28;20398;-67
2022/08/11 02:26:07;;;;;;;4.55;3.40;;;16.20;99.90;;;;;;5034404;28;20063;-67
2022/08/11 02:28:53;;;;;;;4.40;3.50;;;16.10;99.90;;;;;;5034614;28;20071;-67
2022/08/11 02:34:30;;;;;;;4.43;3.58;;;16.00;99.90;;;;;;5014506;28;20046;-67
2022/08/11 02:37:23;;;;;;;5.20;3.30;;;16.00;99.90;;;;;;5014046;28;20054;-67
2022/08/11 02:39:57;;;;;;;4.40;3.63;;;16.00;99.90;;;;;;5013980;28;20109;-67
2022/08/11 02:42:44;;;;;;;4.90;3.25;;;15.90;99.90;;;;;;5012684;28;20042;-67
2022/08/11 02:45:38;;;;;;;4.78;3.35;;;15.90;99.90;;;;;;5013815;28;20060;-67
2022/08/11 02:51:31;;;;;;;5.38;4.10;;;15.80;99.90;;;;;;5014016;28;20049;-67
2022/08/11 02:54:06;;;;;;;4.57;3.55;;;15.80;99.90;;;;;;5013672;28;20049;-67
2022/08/11 02:56:56;;;;;;;4.57;3.50;;;15.80;99.90;;;;;;5013726;28;20050;-67
2022/08/11 03:02:30;;;;;;;4.97;3.67;;;15.80;99.90;;;;;;5014181;28;20056;-67
2022/08/11 03:05:01;;;;;;;5.80;4.25;;;15.80;99.90;;;;;;5012855;28;20403;-67
2022/08/11 03:07:46;;;;;;;5.60;4.20;;;15.80;99.90;;;;;;5013591;28;20050;-67
2022/08/11 03:16:43;;;;;;;4.90;3.97;;;15.80;99.90;;;;;;5014129;28;20128;-67
2022/08/11 03:17:03;;;;;;;4.70;4.03;;;15.70;99.90;;;;;;5014260;28;20050;-67
2022/08/11 03:19:53;;;;;;;6.32;4.70;;;15.70;99.90;;;;;;5012994;28;20376;-67
2022/08/11 03:22:56;;;;;;;6.30;4.28;;;15.70;99.90;;;;;;5013466;28;20048;-67
2022/08/11 03:25:35;;;;;;;5.30;3.85;;;15.80;99.90;;;;;;5013716;28;20091;-67
2022/08/11 03:28:11;;;;;;;5.05;4.03;;;15.80;99.90;;;;;;5012965;28;20522;-67
2022/08/11 03:30:55;;;;;;;5.85;4.47;;;15.80;99.90;;;;;;5026324;28;20104;-67
2022/08/11 03:34:01;;;;;;;5.93;4.63;;;15.80;99.90;;;;;;5033096;28;20053;-67
2022/08/11 03:36:59;;;;;;;6.07;4.53;;;15.80;99.90;;;;;;5015499;28;20081;-67
2022/08/11 03:39:24;;;;;;;5.15;4.22;;;15.80;99.90;;;;;;5032644;28;20475;-67
2022/08/11 03:42:06;;;;;;;5.65;4.57;;;15.80;99.90;;;;;;5032909;28;20045;-67
2022/08/11 03:45:13;;;;;;;5.03;3.97;;;15.80;99.90;;;;;;5032935;28;20049;-67
2022/08/11 03:47:59;;;;;;;5.75;4.50;;;15.80;99.90;;;;;;4936993;29;20058;-67
2022/08/11 03:50:46;;;;;;;5.00;4.30;;;15.80;99.90;;;;;;5030352;28;20133;-67
2022/08/11 03:53:45;;;;;;;5.55;4.38;;;15.70;99.90;;;;;;5033098;28;20438;-67
2022/08/11 03:56:32;;;;;;;5.25;3.92;;;15.70;99.90;;;;;;5032764;28;20050;-67
2022/08/11 03:59:27;;;;;;;6.40;4.43;;;15.60;99.90;;;;;;5015575;28;20046;-67
2022/08/11 04:02:15;;;;;;;5.68;4.43;;;15.60;99.90;;;;;;5032748;28;20053;-67
2022/08/11 04:05:01;;;;;;;5.10;4.15;;;15.50;99.90;;;;;;5032503;28;20060;-67
2022/08/11 04:08:04;;;;;;;4.75;3.78;;;15.50;99.90;;;;;;5032088;28;20413;-67
2022/08/11 04:10:54;;;;;;;6.35;3.58;;;15.40;99.90;;;;;;5035696;28;20084;-67
2022/08/11 04:15:58;;;;;;;4.75;3.90;;;15.40;99.90;;;;;;5035997;28;20529;-67
2022/08/11 04:16:52;;;;;;;4.00;3.28;;;15.40;99.90;;;;;;5036073;28;20057;-67
2022/08/11 04:19:55;;;;;;;3.95;3.30;;;15.30;99.90;;;;;;5036765;28;20052;-67
2022/08/11 04:22:39;;;;;;;3.60;2.90;;;15.30;99.90;;;;;;5036153;28;20398;-67
2022/08/11 04:25:23;;;;;;;4.03;3.25;;;15.30;99.90;;;;;;5036644;28;20062;-67
2022/08/11 04:28:07;;;;;;;3.63;2.50;;;15.20;99.90;;;;;;5036625;28;20041;-67
2022/08/11 04:30:57;;;;;;;3.00;2.50;;;15.20;99.90;;;;;;5036357;28;20056;-67
2022/08/11 04:33:53;;;;;;;4.93;2.85;;;15.20;99.90;;;;;;5035957;28;20128;-67
2022/08/11 04:36:20;;;;;;;3.67;2.97;;;15.20;99.90;;;;;;5035929;28;20100;-67
2022/08/11 04:38:48;;;;;;;3.33;2.80;;;15.20;99.90;;;;;;5036638;28;20158;-67
2022/08/11 04:43:19;;;;;;;5.22;3.22;;;15.20;99.90;;;;;;5036343;28;20045;-67
2022/08/11 04:44:48;;;;;;;3.50;2.80;;;15.20;99.90;;;;;;5035719;28;20090;-67
2022/08/11 05:03:04;;;;;;;5.45;3.50;;;15.30;99.90;;;;;;5035993;28;20049;-67
2022/08/11 05:05:51;;;;;;;4.63;3.58;;;15.40;99.90;;;;;;5035926;28;20593;-68
2022/08/11 05:08:44;;;;;;;4.10;3.08;;;15.50;99.90;;;;;;5035922;28;20417;-68
2022/08/11 05:11:47;;;;;;;5.38;4.03;;;15.60;99.90;;;;;;5002056;28;20058;-68
2022/08/11 05:37:18;;;;;;;5.95;4.55;;;16.20;99.90;;;;;;4955194;29;20130;-67
2022/08/11 05:57:17;;;;;;;5.82;5.00;;;16.90;99.90;;;;;;5034396;28;20064;-68
2022/08/11 05:59:45;;;;;;;5.95;5.20;;;17.00;99.90;;;;;;5034369;28;20548;-68
2022/08/11 06:02:11;;;;;;;4.95;4.38;;;17.10;99.90;;;;;;5034220;28;20046;-68
2022/08/11 06:04:38;;;;;;;5.30;4.78;;;17.20;99.90;;;;;;5034297;28;20428;-68
2022/08/11 06:07:10;;;;;;;6.00;5.18;;;17.30;99.90;;;;;;5034273;28;20398;-68
2022/08/11 06:09:45;;;;;;;5.63;4.70;;;17.30;99.90;;;;;;5034987;28;20144;-68
2022/08/11 06:12:19;;;;;;;6.60;5.20;;;17.40;99.90;;;;;;5034142;28;20037;-68
2022/08/11 06:14:46;;;;;;;5.95;4.55;;;17.50;99.90;;;;;;5034464;28;20360;-64
2022/08/11 06:17:13;;;;;;;6.20;4.40;;;17.60;99.90;;;;;;5034031;28;20439;-64
2022/08/11 06:19:47;;;;;;;6.15;5.32;;;17.70;99.90;;;;;;5034498;28;20441;-63
2022/08/11 06:22:18;;;;;;;6.25;4.95;;;17.80;99.90;;;;;;5034818;28;20168;-63
2022/08/11 06:24:54;;;;;;;6.63;5.07;;;17.80;99.90;;;;;;5034186;28;20041;-63
2022/08/11 06:27:21;;;;;;;5.43;4.88;;;18.00;99.90;;;;;;5034252;28;20089;-64
2022/08/11 06:29:50;;;;;;;6.03;4.63;;;18.10;99.90;;;;;;5033343;28;20057;-64
2022/08/11 06:32:17;;;;;;;6.35;4.85;;;18.20;99.90;;;;;;5033867;28;20054;-64
2022/08/11 06:35:03;;;;;;;5.57;4.85;;;18.30;99.90;;;;;;5033219;28;20478;-64
2022/08/11 06:37:47;;;;;;;;;;;18.40;99.90;;;;;;5034444;28;20085;-64
2022/08/11 06:40:39;;;;;;;5.57;4.55;;;18.50;99.90;;;;;;5032499;28;19928;-65
2022/08/11 06:43:18;;;;;;;5.50;4.40;;;18.60;99.90;;;;;;5034279;28;20088;-65
2022/08/11 06:46:04;;;;;;;7.28;4.63;;;18.70;99.90;;;;;;5033511;28;20053;-65
2022/08/11 06:48:38;;;;;;;6.63;4.40;;;18.80;99.90;;;;;;5033537;28;20097;-65
2022/08/11 06:51:13;;;;;;;7.60;4.55;;;18.90;99.90;;;;;;5033454;28;20053;-65
2022/08/11 06:53:45;;;;;;;5.10;4.13;;;19.00;99.90;;;;;;5033672;28;20079;-65
2022/08/11 07:01:57;;;;;;;6.03;4.15;;;19.40;99.90;;;;;;5033026;28;20049;-65
2022/08/11 07:04:38;;;;;;;5.57;4.13;;;19.50;99.90;;;;;;5033815;28;20190;-65
2022/08/11 07:16:43;;;;;;;6.28;4.72;;;20.10;99.90;;;;;;5033013;28;20057;-65
2022/08/11 07:30:41;;;;;;;5.80;3.78;;;20.80;99.90;;;;;;5032887;28;20120;-65
2022/08/11 07:33:09;;;;;;;5.55;3.90;;;20.90;99.90;;;;;;5032892;28;20081;-64
2022/08/11 07:35:43;;;;;;;5.65;3.67;;;21.00;99.90;;;;;;5033361;28;20060;-65
2022/08/11 07:38:19;;;;;;;4.10;3.38;;;21.20;99.90;;;;;;5033218;28;20049;-65
2022/08/11 07:40:45;;;;;;;3.88;3.28;;;21.30;99.90;;;;;;5033496;28;20371;-65
2022/08/11 07:43:12;;;;;;;4.55;3.60;;;21.40;99.90;;;;;;5015212;28;20049;-64
2022/08/11 07:54:05;;;;;;;5.50;3.83;;;21.90;99.90;;;;;;5036487;28;20049;-66
2022/08/11 07:56:36;;;;;;;5.15;3.10;;;22.00;99.90;;;;;;5036666;28;20046;-65
2022/08/11 08:18:25;;;;;;;3.85;2.33;;;22.90;99.90;;;;;;5036242;28;20093;-68
2022/08/11 08:20:53;;;;;;;3.70;2.22;;;23.00;99.90;;;;;;5018977;28;20096;-67
2022/08/11 08:23:33;;;;;;;3.60;2.60;;;23.10;99.90;;;;;;5036044;28;20084;-67
2022/08/11 08:26:57;;;;;;;3.60;2.22;;;23.30;99.90;;;;;;5036922;28;20053;-67
2022/08/11 08:28:53;;;;;;;4.00;2.28;;;23.40;99.90;;;;;;5035995;28;20136;-67
2022/08/11 08:31:20;;;;;;;2.67;2.00;;;23.50;99.90;;;;;;5017870;28;20058;-66
2022/08/11 08:33:47;;;;;;;3.10;1.70;;;23.60;99.90;;;;;;5018207;28;20069;-66
2022/08/11 08:36:17;;;;;;;3.38;2.03;;;23.80;99.90;;;;;;5035566;28;20492;-66
2022/08/11 08:38:48;;;;;;;2.55;1.70;;;23.90;99.90;;;;;;5035398;28;20052;-67
2022/08/11 08:41:20;;;;;;;2.88;1.60;;;24.10;99.90;;;;;;5035525;28;20111;-68
2022/08/11 08:43:52;;;;;;;2.60;1.45;;;24.30;99.90;;;;;;5035971;28;20048;-68
2022/08/11 08:46:26;;;;;;;3.45;1.20;;;24.40;99.90;;;;;;5036606;28;20414;-68
2022/08/11 08:48:53;;;;;;;2.33;1.15;;;24.50;99.90;;;;;;5035778;28;20041;-68
2022/08/11 08:51:35;;;;;;;2.78;1.40;;;24.60;99.90;;;;;;5035624;28;20136;-67
2022/08/11 08:54:13;;;;;;;3.47;1.33;;;24.80;99.90;;;;;;5017891;28;20490;-67
2022/08/11 08:56:41;;;;;;;2.22;1.00;;;24.90;99.90;;;;;;5034548;28;20107;-66
2022/08/11 08:59:11;;;;;;;3.15;1.10;;;25.00;99.90;;;;;;5018218;28;20075;-66
2022/08/11 09:01:47;;;;;;;2.83;1.05;;;25.20;99.90;;;;;;5036284;28;20124;-66
2022/08/11 09:04:14;;;;;;;3.40;1.10;;;25.30;99.90;;;;;;5035901;28;20129;-66
2022/08/11 09:06:44;;;;;;;1.60;1.00;;;25.40;99.90;;;;;;5035021;28;20502;-66
2022/08/11 09:09:13;;;;;;;2.13;0.95;;;25.50;99.90;;;;;;5035615;28;20057;-66
2022/08/11 09:11:52;;;;;;;4.10;1.10;;;25.60;99.90;;;;;;5035170;28;20045;-66
2022/08/11 09:14:59;;;;;;;3.33;1.10;;;25.70;99.90;;;;;;5035197;28;20466;-66
2022/08/11 09:17:11;;;;;;;2.10;0.95;;;25.90;99.90;;;;;;5020031;28;20054;-66
2022/08/11 09:19:37;;;;;;;2.05;1.00;;;26.10;99.90;;;;;;5035146;28;20055;-66
2022/08/11 09:27:55;;;;;;;2.30;0.90;;;26.40;99.90;;;;;;4954346;29;20121;-65
2022/08/11 09:30:26;;;;;;;2.13;0.90;;;26.50;99.90;;;;;;4954190;29;20063;-65
2022/08/11 09:32:59;;;;;;;2.60;1.00;;;26.50;99.90;;;;;;4995149;28;20049;-65
2022/08/11 09:35:31;;;;;;;1.90;0.93;;;26.60;99.90;;;;;;5034758;28;20045;-65
2022/08/11 09:40:46;;;;;;;1.73;1.00;;;26.80;99.90;;;;;;5035213;28;20057;-65
2022/08/11 09:45:59;;;;;;;2.10;0.80;;;26.90;99.90;;;;;;5035401;28;20061;-65
2022/08/11 09:48:28;;;;;;;2.58;1.00;;;27.00;99.90;;;;;;5034182;28;20471;-66
2022/08/11 09:50:57;;;;;;;3.72;1.20;;;27.10;99.90;;;;;;5034466;28;20045;-66
2022/08/11 09:53:26;;;;;;;2.90;1.10;;;27.10;99.90;;;;;;5034219;28;20052;-66
2022/08/11 09:55:53;;;;;;;2.60;1.10;;;27.20;99.90;;;;;;5034042;28;20502;-66
2022/08/11 09:58:20;;;;;;;2.45;1.05;;;27.20;99.90;;;;;;5017515;28;20061;-65
2022/08/11 10:00:48;;;;;;;2.58;1.17;;;27.20;99.90;;;;;;5034279;28;20056;-65
2022/08/11 10:03:28;;;;;;;3.53;1.00;;;27.30;99.90;;;;;;5034959;28;20454;-65
2022/08/11 10:08:46;;;;;;;2.13;0.93;;;27.30;99.90;;;;;;5034416;28;20119;-67
2022/08/11 10:11:17;;;;;;;1.60;0.90;;;27.30;99.90;;;;;;5034080;28;20482;-66
2022/08/11 10:16:36;;;;;;;2.53;1.00;;;27.50;99.90;;;;;;5034015;28;20060;-67
2022/08/11 10:19:03;;;;;;;2.25;1.42;;;27.60;99.90;;;;;;5034326;28;20109;-66
2022/08/11 10:21:43;;;;;;;3.22;1.15;;;27.60;99.50;;;;;;5034041;28;20096;-66
2022/08/11 10:27:15;;;;;;;1.65;0.80;;;27.70;98.60;;;;;;4991993;28;20144;-66
2022/08/11 10:35:14;;;;;;;1.40;0.80;;;27.80;98.20;;;;;;5014251;28;20185;-67
2022/08/11 10:37:43;;;;;;;3.65;1.00;;;27.80;97.60;;;;;;5013477;28;20489;-66
2022/08/11 10:40:16;;;;;;;2.05;0.80;;;27.80;97.10;;;;;;5013837;28;20104;-66
2022/08/11 10:48:24;;;;;;;2.13;0.93;;;28.00;96.00;;;;;;5013749;28;20136;-66
2022/08/11 10:59:09;;;;;;;2.38;0.88;;;28.00;94.70;;;;;;5013899;28;20402;-66
2022/08/11 11:01:38;;;;;;;2.00;1.00;;;28.00;94.60;;;;;;5012879;28;20053;-66
2022/08/11 11:04:12;;;;;;;1.55;0.90;;;28.10;94.40;;;;;;5014017;28;20046;-66
2022/08/11 11:07:12;;;;;;;1.48;0.85;;;28.10;94.30;;;;;;5011889;28;20052;-66
2022/08/11 11:09:54;;;;;;;2.03;0.88;;;28.20;93.60;;;;;;5013971;28;20056;-65
2022/08/11 11:18:28;;;;;;;2.53;0.90;;;28.20;93.30;;;;;;5013396;28;20058;-65
2022/08/11 11:21:03;;;;;;;1.70;0.90;;;28.20;93.50;;;;;;5013429;28;20050;-66
2022/08/11 11:23:46;;;;;;;1.93;1.00;;;28.30;93.20;;;;;;5014211;28;20045;-66
2022/08/11 11:26:32;;;;;;;2.75;0.82;;;28.40;92.60;;;;;;5013689;28;20050;-66
2022/08/11 11:29:43;;;;;;;2.22;1.15;;;28.40;92.20;;;;;;5013359;28;20092;-67
2022/08/11 11:32:18;;;;;;;1.70;0.75;;;28.40;92.30;;;;;;5014148;28;20050;-67
2022/08/11 11:34:59;;;;;;;1.90;0.98;;;28.40;92.60;;;;;;5013261;28;20125;-66
2022/08/11 11:37:28;;;;;;;2.35;0.80;;;28.50;93.50;;;;;;5013242;28;20072;-67
2022/08/11 11:39:56;;;;;;;1.55;1.00;;;28.60;92.70;;;;;;5013244;28;20046;-67
2022/08/11 11:42:22;;;;;;;2.28;1.00;;;28.70;92.00;;;;;;5013980;28;20049;-67
2022/08/11 11:44:49;;;;;;;2.03;1.00;;;28.80;91.90;;;;;;5013595;28;20046;-66
2022/08/11 11:47:19;;;;;;;1.80;0.93;;;28.70;91.60;;;;;;5013152;28;20054;-65
2022/08/11 11:49:47;;;;;;;1.63;1.00;;;28.70;91.50;;;;;;5013041;28;20049;-66
2022/08/11 11:52:18;;;;;;;2.10;0.98;;;28.60;91.20;;;;;;5013095;28;20048;-65
2022/08/11 11:54:51;;;;;;;2.08;1.05;;;28.50;91.10;;;;;;5013514;28;20046;-65
2022/08/11 12:02:57;;;;;;;2.13;0.90;;;28.50;90.60;;;;;;5011958;28;20060;-66
2022/08/11 12:05:24;;;;;;;1.40;0.80;;;28.60;90.40;;;;;;5013391;28;20127;-66
2022/08/11 12:08:10;;;;;;;2.05;0.90;;;28.60;90.30;;;;;;5012886;28;20046;-66
2022/08/11 12:10:38;;;;;;;2.17;0.82;;;28.70;90.20;;;;;;5013426;28;20053;-66
2022/08/11 12:15:50;;;;;;;1.60;0.82;;;28.60;89.20;;;;;;5012853;28;20057;-65
2022/08/11 12:18:17;;;;;;;1.80;1.00;;;28.60;89.50;;;;;;5013169;28;20439;-65
2022/08/11 12:20:44;;;;;;;1.75;0.90;;;28.60;89.20;;;;;;5012590;28;20513;-65
2022/08/11 12:28:41;;;;;;;1.70;0.90;;;28.90;89.00;;;;;;5012832;28;19979;-65
2022/08/11 12:31:08;;;;;;;2.13;0.90;;;28.70;89.00;;;;;;5027460;28;20552;-65
2022/08/11 12:33:40;;;;;;;1.27;0.70;;;28.70;89.00;;;;;;5035605;28;20527;-65
2022/08/11 12:36:08;;;;;;;2.05;0.90;;;28.80;87.90;;;;;;5035911;28;20084;-65
2022/08/11 12:38:34;;;;;;;1.40;0.80;;;28.70;86.80;;;;;;5036331;28;20053;-65
2022/08/11 12:46:38;;;;;;;1.15;0.60;;;28.70;86.50;;;;;;5036291;28;20107;-65
2022/08/11 12:52:05;;;;;;;2.60;0.90;;;28.70;86.20;;;;;;5036166;28;20060;-65
2022/08/11 12:54:53;;;;;;;3.95;1.00;;;28.70;86.10;;;;;;5036299;28;20056;-65
2022/08/11 13:05:57;;;;;;;3.83;1.00;;;28.90;85.60;;;;;;5035333;28;20140;-67
2022/08/11 13:08:24;;;;;;;1.80;0.90;;;28.90;85.00;;;;;;5035212;28;20041;-67
2022/08/11 13:13:41;;;;;;;1.70;0.80;;;28.80;84.70;;;;;;5035064;28;20053;-65
2022/08/11 13:16:08;;;;;;;1.92;0.82;;;28.90;83.90;;;;;;5035129;28;20098;-66
2022/08/11 13:18:35;;;;;;;2.15;0.70;;;28.90;82.80;;;;;;5035001;28;20124;-67
2022/08/11 13:21:01;;;;;;;1.85;0.70;;;28.90;82.80;;;;;;5035625;28;20054;-65
2022/08/11 13:23:28;;;;;;;2.80;0.88;;;28.90;82.50;;;;;;5035542;28;20115;-65
2022/08/11 13:25:54;;;;;;;1.30;0.60;;;28.80;82.40;;;;;;5018105;28;20486;-66
2022/08/11 13:28:21;;;;;;;2.28;0.75;;;28.90;82.20;;;;;;5034943;28;20045;-66
2022/08/11 13:34:06;;;;;;;2.38;0.80;;;29.00;82.30;;;;;;5035073;28;20473;-65
2022/08/11 13:36:33;;;;;;;1.60;0.68;;;29.00;81.80;;;;;;5019481;28;20498;-65
2022/08/11 13:39:01;;;;;;;1.27;0.60;;;29.00;81.60;;;;;;5035186;28;20184;-65
2022/08/11 13:41:38;;;;;;;2.22;0.80;;;29.00;81.50;;;;;;5034517;28;20080;-65
2022/08/11 13:44:08;;;;;;;2.25;0.80;;;29.00;81.20;;;;;;5034973;28;20072;-66
2022/08/11 13:46:35;;;;;;;1.95;1.00;;;29.10;80.60;;;;;;5017860;28;20088;-65
2022/08/11 13:49:01;;;;;;;1.90;0.80;;;29.00;80.10;;;;;;5017032;28;20139;-65
2022/08/11 13:51:32;;;;;;;1.27;0.70;;;29.00;80.40;;;;;;5034405;28;20053;-65
2022/08/11 13:54:08;;;;;;;1.58;0.70;;;29.00;80.80;;;;;;5034796;28;20107;-65
2022/08/11 13:56:38;;;;;;;1.38;0.80;;;29.10;80.20;;;;;;5035212;28;20053;-66
2022/08/11 13:59:07;;;;;;;1.80;0.80;;;29.20;79.90;;;;;;5034281;28;20053;-66
2022/08/11 14:01:38;;;;;;;1.92;0.80;;;29.20;79.50;;;;;;5034247;28;20531;-66
2022/08/11 14:04:40;;;;;;;1.65;0.80;;;29.10;79.30;;;;;;5034332;28;20049;-66
2022/08/11 14:07:09;;;;;;;2.08;0.80;;;29.10;79.70;;;;;;5034438;28;20045;-66
2022/08/11 14:09:38;;;;;;;2.70;0.90;;;29.10;80.50;;;;;;5034033;28;20052;-66
2022/08/11 14:15:11;;;;;;;3.78;1.33;;;29.30;82.00;;;;;;5034654;28;20057;-66
2022/08/11 14:17:39;;;;;;;2.25;0.80;;;29.30;82.40;;;;;;5034122;28;20057;-66
2022/08/11 14:20:08;;;;;;;1.45;0.90;;;29.30;82.20;;;;;;5033984;28;20049;-66
2022/08/11 14:22:37;;;;;;;1.58;0.85;;;29.30;82.30;;;;;;5033969;28;20123;-66
2022/08/11 14:25:04;;;;;;;1.95;0.90;;;29.30;83.10;;;;;;5016739;28;20044;-66
2022/08/11 14:27:30;;;;;;;1.90;0.88;;;29.30;82.30;;;;;;5034031;28;20490;-66
2022/08/11 14:29:57;;;;;;;2.05;0.73;;;29.30;82.00;;;;;;5016064;28;20108;-65
2022/08/11 14:32:24;;;;;;;2.28;0.80;;;29.30;82.30;;;;;;5034256;28;20060;-65
2022/08/11 14:34:50;;;;;;;2.20;0.80;;;29.40;82.50;;;;;;5033686;28;20104;-65
2022/08/11 14:37:24;;;;;;;1.30;0.85;;;29.40;82.50;;;;;;5015789;28;20456;-66
2022/08/11 14:39:55;;;;;;;1.40;0.70;;;29.40;81.80;;;;;;5034052;28;20115;-66
2022/08/11 14:48:00;;;;;;;1.80;0.90;;;29.40;81.00;;;;;;5033992;28;20147;-64
2022/08/11 14:50:31;;;;;;;2.92;0.90;;;29.50;81.30;;;;;;5033471;28;20145;-64
2022/08/11 14:53:05;;;;;;;2.00;1.00;;;29.50;81.40;;;;;;5033839;28;20072;-66
2022/08/11 14:58:28;;;;;;;3.15;0.80;;;29.50;81.50;;;;;;5033314;28;20065;-64
2022/08/11 15:00:57;;;;;;;2.45;0.70;;;29.50;81.20;;;;;;5033147;28;20064;-64
2022/08/11 15:03:24;;;;;;;1.60;1.35;;;29.50;81.20;;;;;;5033207;28;20048;-64
2022/08/11 15:05:56;;;;;;;1.85;0.90;;;29.50;82.10;;;;;;5033154;28;20526;-65
2022/08/11 15:14:05;;;;;;;2.15;0.80;;;29.50;81.40;;;;;;5032984;28;20061;-65
2022/08/11 15:19:19;;;;;;;2.85;0.80;;;29.40;80.50;;;;;;5034091;28;20072;-65
2022/08/11 15:24:32;;;;;;;2.40;0.80;;;29.50;80.30;;;;;;5033012;28;20083;-65
2022/08/11 15:38:05;;;;;;;3.70;0.95;;;30.80;78.10;;;;;;5032855;28;20056;-64
2022/08/11 15:46:21;;;;;;;2.00;0.65;;;30.30;78.50;;;;;;5032518;28;20540;-64
2022/08/11 15:49:08;;;;;;;1.63;0.88;;;30.20;79.00;;;;;;5033307;28;20056;-64
2022/08/11 15:51:36;;;;;;;1.48;0.80;;;30.10;79.40;;;;;;5033547;28;20061;-65
2022/08/11 15:54:14;;;;;;;3.45;0.77;;;30.00;80.70;;;;;;5032612;28;20091;-64
2022/08/11 15:56:43;;;;;;;3.95;0.80;;;30.10;80.30;;;;;;5032834;28;20081;-65
2022/08/11 16:04:42;;;;;;;1.70;1.00;;;30.90;79.20;;;;;;5033020;28;20088;-65
2022/08/11 16:07:11;;;;;;;2.55;1.05;;;32.10;78.00;;;;;;5036293;28;20060;-65
2022/08/11 16:10:07;;;;;;;3.95;0.80;;;33.10;77.10;;;;;;5036491;28;20045;-65
2022/08/11 16:18:40;;;;;;;2.58;0.90;;;35.40;72.50;;;;;;5036808;28;20461;-65
2022/08/11 16:21:25;;;;;;;1.90;0.70;;;35.90;73.80;;;;;;5037101;28;20050;-66
2022/08/11 16:23:54;;;;;;;1.25;0.63;;;36.10;71.40;;;;;;5036240;28;20533;-66
2022/08/11 16:26:22;;;;;;;2.85;0.90;;;35.90;72.80;;;;;;5036167;28;20091;-66
2022/08/11 16:28:57;;;;;;;2.30;0.90;;;35.60;72.60;;;;;;5036118;28;20098;-66
2022/08/11 16:31:24;;;;;;;2.30;0.90;;;35.40;71.40;;;;;;5036499;28;20061;-66
2022/08/11 16:33:52;;;;;;;2.17;0.85;;;35.30;71.90;;;;;;5035828;28;20053;-66
2022/08/11 16:39:08;;;;;;;1.98;0.73;;;35.10;71.40;;;;;;5035956;28;20064;-65
2022/08/11 16:47:15;;;;;;;1.58;0.88;;;36.50;69.90;;;;;;5035680;28;20095;-65
2022/08/11 16:49:47;;;;;;;1.30;0.80;;;36.80;69.00;;;;;;5035678;28;20120;-65
2022/08/11 16:52:13;;;;;;;2.95;1.00;;;37.00;68.20;;;;;;5035857;28;20096;-65
2022/08/11 16:54:41;;;;;;;1.60;0.90;;;37.10;68.40;;;;;;5035416;28;20425;-66
2022/08/11 17:00:06;;;;;;;1.70;1.05;;;36.00;67.70;;;;;;5035646;28;20586;-65
2022/08/11 17:14:21;;;;;;;2.55;1.05;;;31.90;71.60;;;;;;5035878;28;20072;-65
2022/08/11 17:16:50;;;;;;;2.17;1.02;;;31.50;72.20;;;;;;4954453;28;20066;-65
2022/08/11 17:19:24;;;;;;;3.20;1.13;;;31.20;72.00;;;;;;5021283;28;20057;-65
2022/08/11 17:24:39;;;;;;;2.10;0.90;;;30.70;72.60;;;;;;5035575;28;20067;-65
2022/08/11 17:27:15;;;;;;;1.77;0.80;;;30.50;73.70;;;;;;5035809;28;20072;-65
2022/08/11 17:29:51;;;;;;;3.50;1.20;;;30.30;73.50;;;;;;5034956;28;20088;-65
2022/08/11 17:35:29;;;;;;;3.92;1.15;;;30.00;74.50;;;;;;5035649;28;20445;-65
2022/08/11 17:38:13;;;;;;;2.42;1.08;;;30.00;74.90;;;;;;5035382;28;20045;-65
2022/08/11 17:49:08;;;;;;;;;;;29.00;75.40;;;;;;5035070;28;20226;-64
2022/08/11 17:59:52;;;;;;;;;;;28.20;77.40;;;;;;5034917;28;20140;-64
2022/08/11 18:05:25;;;;;;;2.08;1.23;;;27.90;77.90;;;;;;5034611;28;20057;-64
